createdAt,value
2018-10-16T00:00:12.605Z,7.45
2018-10-16T00:02:42.000Z,7.97
2018-10-16T00:05:10.973Z,7.80
2018-10-16T00:07:39.963Z,7.28
2018-10-16T00:10:09.955Z,7.47
2018-10-16T00:12:38.890Z,7.17
2018-10-16T00:15:09.299Z,7.87
2018-10-16T00:17:38.202Z,8.05
2018-10-16T00:20:07.434Z,9.20
2018-10-16T00:22:36.433Z,7.33
2018-10-16T00:25:06.648Z,7.75
2018-10-16T00:27:35.694Z,7.15
2018-10-16T00:30:04.814Z,7.90
2018-10-16T00:32:33.801Z,7.80
2018-10-16T00:35:02.755Z,8.68
2018-10-16T00:37:31.667Z,7.08
2018-10-16T00:40:01.734Z,8.08
2018-10-16T00:42:30.654Z,8.50
2018-10-16T00:44:59.566Z,8.65
2018-10-16T00:47:28.479Z,9.00
2018-10-16T00:49:57.508Z,7.70
2018-10-16T00:52:26.410Z,7.58
2018-10-16T00:54:55.381Z,8.05
2018-10-16T00:57:24.296Z,7.67
2018-10-16T00:59:53.195Z,8.45
2018-10-16T01:02:22.126Z,8.40
2018-10-16T01:04:51.102Z,7.47
2018-10-16T01:07:20.015Z,7.83
2018-10-16T01:09:48.971Z,8.53
2018-10-16T01:12:17.925Z,7.55
2018-10-16T01:14:46.852Z,8.25
2018-10-16T01:17:16.135Z,7.40
2018-10-16T01:19:45.079Z,7.42
2018-10-16T01:22:14.005Z,7.10
2018-10-16T01:24:42.963Z,8.53
2018-10-16T01:27:11.859Z,8.93
2018-10-16T01:29:40.806Z,8.43
2018-10-16T01:32:09.707Z,7.55
2018-10-16T01:34:38.637Z,8.83
2018-10-16T01:37:07.543Z,8.68
2018-10-16T01:39:36.457Z,8.13
2018-10-16T01:42:05.731Z,7.65
2018-10-16T01:44:34.736Z,7.58
2018-10-16T01:47:03.668Z,10.15
2018-10-16T01:49:32.607Z,7.70
2018-10-16T01:52:01.516Z,8.23
2018-10-16T01:54:30.417Z,8.65
2018-10-16T01:56:59.320Z,8.30
2018-10-16T01:59:28.250Z,7.95
2018-10-16T02:01:57.157Z,7.08
2018-10-16T02:04:26.065Z,8.70
2018-10-16T02:06:54.959Z,8.78
2018-10-16T02:09:23.935Z,8.20
2018-10-16T02:11:52.853Z,8.20
2018-10-16T02:14:21.828Z,9.00
2018-10-16T02:16:50.914Z,8.80
2018-10-16T02:19:19.877Z,8.33
2018-10-16T02:21:49.008Z,9.08
2018-10-16T02:24:17.943Z,7.92
2018-10-16T02:26:46.916Z,7.35
2018-10-16T02:29:15.965Z,8.60
2018-10-16T02:31:44.885Z,8.30
2018-10-16T02:34:13.817Z,9.55
2018-10-16T02:36:42.771Z,8.35
2018-10-16T02:39:12.067Z,8.20
2018-10-16T02:41:41.000Z,9.05
2018-10-16T02:44:09.983Z,9.20
2018-10-16T02:46:38.895Z,8.10
2018-10-16T02:49:08.098Z,8.85
2018-10-16T02:51:37.004Z,9.00
2018-10-16T02:54:06.237Z,9.75
2018-10-16T02:56:35.174Z,8.60
2018-10-16T02:59:04.078Z,8.05
2018-10-16T03:01:33.042Z,9.15
2018-10-16T03:04:01.996Z,9.60
2018-10-16T03:06:30.942Z,8.75
2018-10-16T03:08:59.886Z,8.45
2018-10-16T03:11:28.898Z,8.55
2018-10-16T03:13:57.866Z,9.68
2018-10-16T03:16:26.837Z,8.30
2018-10-16T03:18:55.809Z,8.45
2018-10-16T03:21:24.789Z,9.00
2018-10-16T03:23:53.749Z,9.45
2018-10-16T03:26:22.824Z,8.60
2018-10-16T03:28:52.433Z,8.63
2018-10-16T03:31:21.444Z,9.05
2018-10-16T03:33:50.468Z,8.93
2018-10-16T03:36:19.465Z,8.05
2018-10-16T03:38:48.473Z,9.28
2018-10-16T03:41:17.469Z,9.38
2018-10-16T03:43:53.846Z,8.68
2018-10-16T03:46:22.881Z,8.70
2018-10-16T03:48:51.865Z,8.65
2018-10-16T03:51:20.873Z,8.68
2018-10-16T03:53:51.117Z,8.95
2018-10-16T03:56:20.265Z,8.35
2018-10-16T03:58:49.426Z,8.70
2018-10-16T04:01:18.354Z,9.03
2018-10-16T04:03:47.267Z,9.53
2018-10-16T04:06:16.230Z,9.48
2018-10-16T04:08:45.155Z,8.83
2018-10-16T04:11:14.067Z,9.18
2018-10-16T04:13:42.992Z,8.28
2018-10-16T04:16:11.899Z,9.98
2018-10-16T04:18:41.043Z,9.08
2018-10-16T04:21:10.688Z,8.73
2018-10-16T04:23:41.391Z,8.98
2018-10-16T04:26:11.123Z,10.78
2018-10-16T04:28:40.241Z,9.08
2018-10-16T04:31:10.565Z,9.25
2018-10-16T04:33:39.531Z,9.10
2018-10-16T04:36:08.509Z,9.18
2018-10-16T04:38:37.408Z,9.00
2018-10-16T04:41:06.314Z,9.73
2018-10-16T04:43:35.250Z,9.78
2018-10-16T04:46:04.158Z,11.35
2018-10-16T04:48:33.074Z,9.15
2018-10-16T04:51:02.001Z,9.43
2018-10-16T04:53:31.003Z,8.55
2018-10-16T04:55:59.947Z,9.65
2018-10-16T04:58:28.854Z,8.73
2018-10-16T05:00:57.766Z,9.53
2018-10-16T05:03:26.717Z,9.83
2018-10-16T05:05:55.634Z,10.18
2018-10-16T05:08:24.558Z,10.03
2018-10-16T05:10:53.499Z,9.68
2018-10-16T05:13:22.446Z,9.13
2018-10-16T05:15:51.414Z,9.45
2018-10-16T05:18:20.326Z,9.25
2018-10-16T05:20:49.298Z,9.85
2018-10-16T05:23:18.274Z,9.73
2018-10-16T05:25:47.254Z,10.53
2018-10-16T05:28:16.191Z,9.15
2018-10-16T05:30:45.097Z,9.53
2018-10-16T05:33:14.026Z,9.38
2018-10-16T05:35:42.938Z,10.53
2018-10-16T05:38:11.854Z,9.28
2018-10-16T05:40:40.834Z,9.85
2018-10-16T05:43:09.734Z,10.43
2018-10-16T05:45:41.255Z,9.88
2018-10-16T05:48:10.237Z,10.93
2018-10-16T05:50:39.604Z,11.43
2018-10-16T05:53:08.531Z,9.85
2018-10-16T05:55:37.455Z,10.60
2018-10-16T05:58:06.754Z,10.20
2018-10-16T06:00:39.539Z,10.05
2018-10-16T06:03:09.044Z,9.73
2018-10-16T06:05:38.056Z,9.48
2018-10-16T06:08:06.957Z,11.35
2018-10-16T06:10:36.324Z,10.28
2018-10-16T06:13:05.542Z,10.00
2018-10-16T06:15:34.492Z,9.60
2018-10-16T06:18:03.410Z,12.00
2018-10-16T06:20:32.323Z,10.28
2018-10-16T06:23:01.368Z,10.35
2018-10-16T06:25:30.315Z,10.25
2018-10-16T06:28:00.201Z,10.80
2018-10-16T06:30:29.118Z,10.75
2018-10-16T06:32:58.068Z,9.93
2018-10-16T06:35:26.991Z,9.33
2018-10-16T06:37:55.909Z,10.38
2018-10-16T06:40:24.863Z,9.95
2018-10-16T06:42:53.775Z,10.45
2018-10-16T06:45:22.739Z,10.80
2018-10-16T06:47:52.081Z,9.43
2018-10-16T06:50:21.009Z,10.78
2018-10-16T06:52:49.923Z,9.50
2018-10-16T06:55:18.953Z,11.12
2018-10-16T06:57:47.830Z,9.68
2018-10-16T07:00:23.621Z,10.65
2018-10-16T07:02:52.573Z,10.23
2018-10-16T07:05:21.573Z,10.72
2018-10-16T07:07:50.565Z,10.68
2018-10-16T07:10:19.817Z,10.98
2018-10-16T07:12:48.838Z,10.43
2018-10-16T07:15:17.838Z,10.93
2018-10-16T07:17:46.805Z,10.65
2018-10-16T07:20:16.078Z,10.53
2018-10-16T07:22:45.122Z,12.18
2018-10-16T07:25:14.213Z,10.72
2018-10-16T07:27:43.175Z,10.15
2018-10-16T07:30:14.356Z,10.10
2018-10-16T07:32:43.190Z,10.75
2018-10-16T07:35:12.149Z,11.20
2018-10-16T07:37:41.384Z,9.75
2018-10-16T07:40:11.467Z,10.32
2018-10-16T07:42:41.103Z,10.78
2018-10-16T07:45:10.087Z,10.58
2018-10-16T07:47:39.006Z,11.85
2018-10-16T07:50:09.838Z,10.35
2018-10-16T07:52:38.762Z,10.10
2018-10-16T07:55:09.426Z,10.10
2018-10-16T07:57:38.501Z,10.75
2018-10-16T08:00:08.937Z,11.73
2018-10-16T08:02:38.369Z,11.78
2018-10-16T08:05:08.177Z,11.40
2018-10-16T08:07:37.338Z,12.40
2018-10-16T08:10:08.345Z,10.53
2018-10-16T08:12:37.371Z,10.90
2018-10-16T08:15:09.015Z,12.25
2018-10-16T08:17:38.130Z,10.85
2018-10-16T08:20:07.119Z,9.90
2018-10-16T08:22:36.358Z,11.65
2018-10-16T08:25:05.933Z,10.40
2018-10-16T08:27:34.871Z,10.40
2018-10-16T08:30:03.981Z,10.45
2018-10-16T08:32:33.779Z,10.93
2018-10-16T08:35:02.727Z,10.70
2018-10-16T08:39:44.258Z,10.48
2018-10-16T08:43:33.678Z,10.50
2018-10-16T08:46:13.891Z,10.45
2018-10-16T08:48:54.168Z,9.60
2018-10-16T08:51:34.066Z,10.65
2018-10-16T08:54:02.980Z,11.00
2018-10-16T08:56:32.352Z,11.30
2018-10-16T08:59:01.636Z,10.28
2018-10-16T09:01:30.683Z,10.70
2018-10-16T09:04:00.370Z,10.95
2018-10-16T09:06:29.421Z,11.60
2018-10-16T09:08:58.376Z,11.38
2018-10-16T09:11:27.319Z,12.05
2018-10-16T09:13:56.437Z,11.15
2018-10-16T09:16:25.451Z,10.75
2018-10-16T09:18:54.408Z,9.70
2018-10-16T09:21:23.390Z,12.20
2018-10-16T09:23:52.328Z,11.33
2018-10-16T09:26:21.379Z,10.75
2018-10-16T09:28:50.373Z,9.53
2018-10-16T09:31:19.330Z,9.53
2018-10-16T09:33:48.342Z,11.08
2018-10-16T09:36:17.731Z,9.85
2018-10-16T09:38:46.732Z,10.03
2018-10-16T09:41:15.715Z,9.70
2018-10-16T09:43:44.638Z,9.23
2018-10-16T09:46:13.647Z,9.20
2018-10-16T09:48:42.591Z,9.15
2018-10-16T09:51:11.499Z,8.38
2018-10-16T09:53:40.418Z,10.48
2018-10-16T09:56:09.363Z,8.68
2018-10-16T09:58:38.286Z,9.50
2018-10-16T10:01:13.226Z,9.10
2018-10-16T10:03:42.122Z,8.90
2018-10-16T10:06:11.074Z,10.65
2018-10-16T10:08:40.680Z,8.85
2018-10-16T10:11:09.807Z,10.48
2018-10-16T10:13:38.641Z,8.58
2018-10-16T10:16:07.937Z,8.55
2018-10-16T10:18:37.120Z,8.48
2018-10-16T10:21:06.090Z,8.23
2018-10-16T10:23:35.007Z,10.43
2018-10-16T10:26:03.934Z,8.90
2018-10-16T10:28:32.862Z,8.93
2018-10-16T10:31:01.789Z,8.38
2018-10-16T10:33:30.698Z,8.53
2018-10-16T10:35:59.642Z,9.05
2018-10-16T10:38:28.571Z,8.40
2018-10-16T10:40:57.523Z,8.80
2018-10-16T10:43:26.463Z,9.28
2018-10-16T10:45:55.962Z,8.85
2018-10-16T10:48:24.871Z,10.00
2018-10-16T10:50:53.978Z,9.30
2018-10-16T10:53:22.793Z,9.63
2018-10-16T10:55:52.875Z,9.50
2018-10-16T10:58:21.800Z,8.93
2018-10-16T11:00:50.746Z,10.00
2018-10-16T11:03:19.796Z,9.53
2018-10-16T11:05:48.656Z,9.97
2018-10-16T11:08:17.646Z,9.10
2018-10-16T11:10:46.585Z,10.53
2018-10-16T11:13:15.514Z,10.63
2018-10-16T11:15:44.415Z,9.63
2018-10-16T11:18:13.434Z,9.90
2018-10-16T11:20:42.334Z,9.97
2018-10-16T11:23:11.267Z,9.90
2018-10-16T11:25:40.184Z,11.10
2018-10-16T11:28:09.106Z,9.53
2018-10-16T11:30:38.024Z,10.87
2018-10-16T11:33:06.973Z,8.73
2018-10-16T11:35:35.831Z,9.30
2018-10-16T11:38:04.843Z,11.23
2018-10-16T11:40:33.990Z,9.90
2018-10-16T11:43:02.940Z,8.90
2018-10-16T11:45:31.859Z,10.40
2018-10-16T11:48:00.815Z,11.80
2018-10-16T11:50:29.730Z,10.10
2018-10-16T11:52:58.868Z,10.50
2018-10-16T11:55:27.783Z,12.00
2018-10-16T11:57:56.687Z,10.57
2018-10-16T12:00:26.131Z,9.60
2018-10-16T12:02:55.699Z,10.23
2018-10-16T12:05:25.035Z,10.40
2018-10-16T12:07:54.127Z,10.93
2018-10-16T12:10:23.018Z,9.30
2018-10-16T12:12:51.997Z,9.53
2018-10-16T12:15:20.878Z,9.10
2018-10-16T12:17:55.130Z,9.67
2018-10-16T12:20:30.222Z,8.57
2018-10-16T12:22:59.251Z,9.40
2018-10-16T12:25:28.179Z,8.90
2018-10-16T12:27:57.135Z,8.90
2018-10-16T12:30:26.042Z,8.37
2018-10-16T12:32:55.035Z,10.20
2018-10-16T12:35:23.917Z,8.87
2018-10-16T12:37:52.852Z,9.60
2018-10-16T12:40:21.843Z,8.00
2018-10-16T12:42:50.927Z,9.37
2018-10-16T12:45:19.911Z,9.10
2018-10-16T12:47:48.903Z,9.40
2018-10-16T12:50:17.938Z,9.33
2018-10-16T12:52:46.952Z,8.97
2018-10-16T12:55:15.850Z,7.93
2018-10-16T12:57:44.789Z,9.70
2018-10-16T13:00:13.760Z,8.47
2018-10-16T13:02:42.662Z,8.90
2018-10-16T13:05:11.692Z,8.60
2018-10-16T13:07:40.554Z,8.40
2018-10-16T13:10:14.606Z,8.27
2018-10-16T13:12:44.479Z,8.50
2018-10-16T13:15:14.179Z,8.30
2018-10-16T13:17:43.090Z,6.37
2018-10-16T13:20:13.508Z,7.33
2018-10-16T13:22:43.525Z,7.50
2018-10-16T13:25:13.586Z,7.37
2018-10-16T13:27:42.506Z,7.47
2018-10-16T13:30:13.669Z,7.03
2018-10-16T13:32:42.890Z,6.30
2018-10-16T13:35:15.691Z,6.93
2018-10-16T13:37:45.312Z,6.67
2018-10-16T13:40:14.368Z,7.43
2018-10-16T13:42:43.225Z,6.67
2018-10-16T13:45:13.355Z,7.00
2018-10-16T13:47:42.288Z,6.37
2018-10-16T13:50:12.848Z,6.60
2018-10-16T13:52:41.994Z,6.50
2018-10-16T13:55:11.493Z,6.13
2018-10-16T13:57:40.729Z,6.80
2018-10-16T14:00:16.400Z,6.00
2018-10-16T14:02:46.648Z,6.10
2018-10-16T14:05:15.646Z,5.63
2018-10-16T14:07:44.752Z,6.00
2018-10-16T14:10:14.632Z,4.93
2018-10-16T14:12:44.494Z,6.10
2018-10-16T14:15:14.097Z,6.03
2018-10-16T14:17:43.015Z,6.50
2018-10-16T14:20:12.145Z,6.50
2018-10-16T14:22:42.055Z,6.07
2018-10-16T14:25:12.279Z,6.80
2018-10-16T14:27:41.813Z,7.10
2018-10-16T14:30:15.738Z,6.80
2018-10-16T14:32:44.842Z,6.50
2018-10-16T14:35:14.346Z,6.43
2018-10-16T14:37:43.363Z,6.90
2018-10-16T14:40:14.110Z,6.00
2018-10-16T14:42:43.266Z,6.37
2018-10-16T14:45:12.923Z,6.17
2018-10-16T14:47:41.891Z,6.30
2018-10-16T14:50:12.037Z,7.10
2018-10-16T14:52:40.905Z,8.40
2018-10-16T14:55:09.877Z,5.57
2018-10-16T14:57:38.834Z,5.63
2018-10-16T15:00:09.469Z,6.10
2018-10-16T15:02:38.379Z,5.93
2018-10-16T15:05:08.266Z,5.80
2018-10-16T15:07:37.280Z,5.80
2018-10-16T15:10:07.347Z,5.17
2018-10-16T15:12:36.223Z,5.27
2018-10-16T15:15:06.551Z,5.30
2018-10-16T15:17:35.459Z,5.80
2018-10-16T15:20:05.077Z,5.73
2018-10-16T15:22:33.939Z,5.87
2018-10-16T15:25:02.869Z,5.40
2018-10-16T15:27:31.786Z,5.50
2018-10-16T15:30:00.693Z,5.00
2018-10-16T15:32:29.616Z,5.77
2018-10-16T15:34:58.559Z,5.53
2018-10-16T15:37:27.655Z,6.00
2018-10-16T15:39:56.581Z,5.90
2018-10-16T15:42:25.503Z,5.30
2018-10-16T15:44:54.412Z,5.33
2018-10-16T15:47:23.360Z,5.83
2018-10-16T15:49:52.285Z,5.20
2018-10-16T15:52:21.190Z,5.50
2018-10-16T15:54:50.141Z,5.30
2018-10-16T15:57:19.192Z,5.43
2018-10-16T15:59:48.162Z,5.53
2018-10-16T16:02:17.399Z,4.90
2018-10-16T16:04:46.273Z,5.43
2018-10-16T16:07:15.810Z,5.97
2018-10-16T16:09:44.710Z,5.50
2018-10-16T16:12:13.700Z,5.30
2018-10-16T16:14:42.583Z,5.60
2018-10-16T16:17:11.518Z,6.30
2018-10-16T16:19:40.435Z,6.77
2018-10-16T16:22:09.476Z,5.70
2018-10-16T16:24:38.420Z,6.23
2018-10-16T16:27:07.400Z,6.73
2018-10-16T16:29:36.411Z,6.90
2018-10-16T16:32:05.661Z,9.50
2018-10-16T16:34:34.579Z,8.50
2018-10-16T16:37:03.508Z,7.77
2018-10-16T16:39:32.426Z,8.30
2018-10-16T16:42:01.396Z,8.27
2018-10-16T16:44:30.368Z,7.77
2018-10-16T16:46:59.340Z,7.07
2018-10-16T16:49:28.270Z,7.47
2018-10-16T16:51:57.217Z,8.90
2018-10-16T16:54:26.150Z,10.10
2018-10-16T16:56:55.054Z,8.00
2018-10-16T16:59:24.015Z,7.40
2018-10-16T17:01:52.951Z,8.00
2018-10-16T17:04:21.892Z,7.20
2018-10-16T17:06:50.802Z,8.47
2018-10-16T17:09:19.760Z,7.40
2018-10-16T17:11:48.720Z,7.05
2018-10-16T17:14:17.912Z,7.37
2018-10-16T17:16:46.870Z,7.03
2018-10-16T17:19:15.799Z,8.13
2018-10-16T17:21:44.725Z,7.33
2018-10-16T17:24:13.651Z,8.38
2018-10-16T17:26:42.645Z,7.47
2018-10-16T17:29:11.502Z,9.88
2018-10-16T17:31:40.462Z,6.87
2018-10-16T17:34:09.461Z,7.97
2018-10-16T17:36:38.396Z,6.78
2018-10-16T17:39:08.941Z,8.40
2018-10-16T17:41:37.810Z,8.50
2018-10-16T17:44:07.338Z,7.78
2018-10-16T17:46:36.525Z,7.92
2018-10-16T17:49:06.175Z,7.47
2018-10-16T17:51:35.410Z,7.15
2018-10-16T17:54:04.412Z,8.10
2018-10-16T17:56:33.318Z,7.55
2018-10-16T17:59:02.310Z,7.60
2018-10-16T18:01:31.309Z,7.87
2018-10-16T18:04:00.255Z,7.45
2018-10-16T18:06:29.221Z,8.20
2018-10-16T18:08:58.186Z,7.70
2018-10-16T18:11:27.079Z,6.80
2018-10-16T18:13:55.995Z,7.37
2018-10-16T18:16:24.999Z,7.92
2018-10-16T18:18:53.918Z,7.85
2018-10-16T18:21:22.898Z,7.20
2018-10-16T18:23:51.949Z,7.28
2018-10-16T18:26:20.823Z,8.28
2018-10-16T18:28:49.758Z,7.80
2018-10-16T18:31:18.841Z,8.20
2018-10-16T18:33:47.947Z,7.47
2018-10-16T18:36:16.846Z,6.87
2018-10-16T18:38:45.787Z,7.60
2018-10-16T18:41:14.880Z,7.42
2018-10-16T18:43:43.829Z,7.00
2018-10-16T18:46:12.751Z,6.97
2018-10-16T18:48:41.699Z,6.90
2018-10-16T18:51:10.753Z,8.40
2018-10-16T18:53:39.595Z,8.08
2018-10-16T18:56:08.525Z,8.30
2018-10-16T18:58:37.430Z,7.25
2018-10-16T19:01:06.366Z,7.40
2018-10-16T19:03:35.405Z,6.80
2018-10-16T19:06:04.305Z,7.92
2018-10-16T19:08:33.330Z,7.45
2018-10-16T19:11:02.256Z,7.92
2018-10-16T19:13:31.164Z,7.90
2018-10-16T19:16:00.111Z,7.37
2018-10-16T19:18:29.045Z,6.53
2018-10-16T19:20:58.030Z,7.70
2018-10-16T19:23:27.051Z,7.80
2018-10-16T19:25:55.973Z,8.15
2018-10-16T19:28:24.937Z,8.13
2018-10-16T19:30:53.868Z,8.15
2018-10-16T19:33:22.774Z,7.80
2018-10-16T19:35:51.846Z,8.45
2018-10-16T19:38:20.754Z,8.48
2018-10-16T19:40:49.725Z,9.10
2018-10-16T19:43:18.656Z,8.23
2018-10-16T19:45:47.615Z,8.03
2018-10-16T19:48:16.506Z,8.10
2018-10-16T19:50:45.509Z,8.43
2018-10-16T19:53:14.408Z,8.83
2018-10-16T19:55:43.439Z,8.00
2018-10-16T19:58:12.343Z,8.88
2018-10-16T20:00:41.507Z,9.55
2018-10-16T20:03:10.538Z,9.10
2018-10-16T20:05:39.410Z,8.80
2018-10-16T20:08:08.341Z,9.25
2018-10-16T20:10:37.290Z,8.73
2018-10-16T20:13:06.199Z,8.98
2018-10-16T20:15:35.242Z,9.28
2018-10-16T20:18:04.118Z,9.20
2018-10-16T20:20:33.103Z,10.90
2018-10-16T20:23:02.004Z,9.10
2018-10-16T20:25:31.151Z,9.88
2018-10-16T20:28:00.130Z,8.85
2018-10-16T20:30:29.070Z,8.23
2018-10-16T20:32:57.979Z,9.50
2018-10-16T20:35:26.907Z,9.28
2018-10-16T20:37:55.843Z,8.95
2018-10-16T20:40:24.782Z,8.78
2018-10-16T20:42:53.694Z,9.58
2018-10-16T20:45:22.631Z,9.65
2018-10-16T20:47:51.552Z,9.83
2018-10-16T20:50:20.506Z,10.18
2018-10-16T20:52:49.518Z,8.65
2018-10-16T20:55:18.633Z,9.25
2018-10-16T20:57:47.558Z,9.65
2018-10-16T21:00:16.488Z,9.70
2018-10-16T21:02:45.405Z,9.80
2018-10-16T21:05:14.415Z,9.03
2018-10-16T21:07:43.248Z,8.80
2018-10-16T21:10:12.243Z,9.38
2018-10-16T21:12:41.199Z,9.40
2018-10-16T21:15:10.618Z,9.35
2018-10-16T21:17:39.534Z,10.50
2018-10-16T21:20:09.973Z,10.82
2018-10-16T21:22:39.382Z,9.25
2018-10-16T21:25:08.758Z,9.65
2018-10-16T21:27:37.622Z,9.53
2018-10-16T21:30:08.455Z,9.63
2018-10-16T21:32:37.454Z,9.38
2018-10-16T21:35:07.045Z,9.65
2018-10-16T21:37:35.886Z,9.93
2018-10-16T21:40:05.482Z,9.58
2018-10-16T21:42:34.370Z,9.70
2018-10-16T21:45:03.314Z,9.88
2018-10-16T21:47:32.238Z,10.43
2018-10-16T21:50:01.169Z,9.35
2018-10-16T21:52:30.080Z,9.40
2018-10-16T21:54:59.032Z,9.43
2018-10-16T21:57:28.339Z,9.65
2018-10-16T21:59:57.370Z,9.38
2018-10-16T22:02:31.566Z,9.45
2018-10-16T22:05:00.531Z,9.75
2018-10-16T22:07:29.450Z,9.00
2018-10-16T22:09:58.378Z,10.88
2018-10-16T22:12:27.299Z,11.00
2018-10-16T22:14:56.242Z,9.40
2018-10-16T22:17:25.194Z,11.20
2018-10-16T22:19:54.338Z,10.63
2018-10-16T22:22:23.246Z,9.05
2018-10-16T22:24:52.159Z,10.15
2018-10-16T22:27:21.073Z,9.75
2018-10-16T22:29:49.993Z,10.63
2018-10-16T22:32:18.907Z,9.68
2018-10-16T22:34:47.938Z,9.10
2018-10-16T22:37:16.875Z,9.45
2018-10-16T22:39:45.834Z,9.30
2018-10-16T22:42:14.758Z,8.53
2018-10-16T22:44:43.817Z,9.18
2018-10-16T22:47:12.817Z,9.88
2018-10-16T22:49:41.662Z,10.45
2018-10-16T22:52:10.574Z,10.08
2018-10-16T22:54:39.486Z,10.70
2018-10-16T22:57:08.421Z,8.98
2018-10-16T22:59:37.381Z,8.90
2018-10-16T23:02:06.513Z,9.75
2018-10-16T23:04:35.514Z,9.70
2018-10-16T23:07:04.416Z,9.60
2018-10-16T23:09:33.298Z,9.70
2018-10-16T23:12:02.230Z,9.85
2018-10-16T23:14:31.170Z,9.43
2018-10-16T23:17:00.101Z,10.50
2018-10-16T23:19:29.011Z,10.05
2018-10-16T23:21:58.085Z,9.60
2018-10-16T23:24:27.130Z,11.38
2018-10-16T23:26:56.042Z,9.53
2018-10-16T23:29:25.025Z,10.20
2018-10-16T23:31:53.917Z,10.90
2018-10-16T23:34:22.866Z,9.70
2018-10-16T23:36:51.862Z,9.50
2018-10-16T23:39:20.799Z,10.82
2018-10-16T23:41:49.734Z,10.38
2018-10-16T23:44:18.697Z,10.88
2018-10-16T23:46:47.627Z,10.53
2018-10-16T23:49:16.595Z,11.00
2018-10-16T23:51:45.498Z,10.85
2018-10-16T23:54:14.446Z,11.55
2018-10-16T23:56:43.347Z,10.25
2018-10-16T23:59:12.313Z,10.13
